createdAt,value
2018-02-11T00:01:10.861Z,6.23
2018-02-11T00:03:40.109Z,6.10
2018-02-11T00:06:09.386Z,5.73
2018-02-11T00:08:39.412Z,5.27
2018-02-11T00:11:08.681Z,6.80
2018-02-11T00:13:37.923Z,5.47
2018-02-11T00:16:07.426Z,5.50
2018-02-11T00:18:36.715Z,5.20
2018-02-11T00:21:06.764Z,4.80
2018-02-11T00:23:36.035Z,5.60
2018-02-11T00:26:05.340Z,6.20
2018-02-11T00:28:34.740Z,5.10
2018-02-11T00:31:04.754Z,5.23
2018-02-11T00:33:34.025Z,6.27
2018-02-11T00:36:03.246Z,5.27
2018-02-11T00:38:33.318Z,5.47
2018-02-11T00:41:02.651Z,5.30
2018-02-11T00:43:31.897Z,5.80
2018-02-11T00:46:01.128Z,6.90
2018-02-11T00:48:30.374Z,6.13
2018-02-11T00:51:00.436Z,5.60
2018-02-11T00:53:29.663Z,6.33
2018-02-11T00:55:58.907Z,5.10
2018-02-11T00:58:28.149Z,6.30
2018-02-11T01:00:57.400Z,4.90
2018-02-11T01:03:26.649Z,6.70
2018-02-11T01:05:55.909Z,5.63
2018-02-11T01:08:25.174Z,5.40
2018-02-11T01:10:54.457Z,6.70
2018-02-11T01:13:23.695Z,6.00
2018-02-11T01:15:53.007Z,5.40
2018-02-11T01:18:22.242Z,5.73
2018-02-11T01:20:52.316Z,6.60
2018-02-11T01:23:22.339Z,5.30
2018-02-11T01:25:51.588Z,5.07
2018-02-11T01:28:20.840Z,5.80
2018-02-11T01:30:50.837Z,5.07
2018-02-11T01:33:20.093Z,5.77
2018-02-11T01:35:49.326Z,5.80
2018-02-11T01:38:18.577Z,5.73
2018-02-11T01:40:47.831Z,5.57
2018-02-11T01:43:17.061Z,5.70
2018-02-11T01:45:46.360Z,6.50
2018-02-11T01:48:16.398Z,6.77
2018-02-11T01:50:45.669Z,5.57
2018-02-11T01:53:14.910Z,8.03
2018-02-11T01:55:44.163Z,6.37
2018-02-11T01:58:14.181Z,6.40
2018-02-11T02:00:43.577Z,5.67
2018-02-11T02:03:12.836Z,5.93
2018-02-11T02:05:42.085Z,6.40
2018-02-11T02:08:11.505Z,4.73
2018-02-11T02:10:41.492Z,5.97
2018-02-11T02:13:10.764Z,7.97
2018-02-11T02:15:40.016Z,6.67
2018-02-11T02:18:10.038Z,6.70
2018-02-11T02:20:40.033Z,5.53
2018-02-11T02:23:09.346Z,7.00
2018-02-11T02:25:38.574Z,5.77
2018-02-11T02:28:07.845Z,6.17
2018-02-11T02:30:37.148Z,5.43
2018-02-11T02:33:06.389Z,5.23
2018-02-11T02:35:35.748Z,5.20
2018-02-11T02:38:05.242Z,4.93
2018-02-11T02:40:34.505Z,5.27
2018-02-11T02:43:03.761Z,4.77
2018-02-11T02:45:34.077Z,5.97
2018-02-11T02:48:03.332Z,4.90
2018-02-11T02:50:32.561Z,5.10
2018-02-11T02:53:01.808Z,5.57
2018-02-11T02:55:31.098Z,4.90
2018-02-11T02:58:00.348Z,4.63
2018-02-11T03:00:29.590Z,5.77
2018-02-11T03:02:58.856Z,5.77
2018-02-11T03:05:28.115Z,4.40
2018-02-11T03:07:57.360Z,4.50
2018-02-11T03:10:26.599Z,4.90
2018-02-11T03:12:55.835Z,6.50
2018-02-11T03:15:25.105Z,6.10
2018-02-11T03:17:55.114Z,5.70
2018-02-11T03:20:24.376Z,4.67
2018-02-11T03:22:53.595Z,4.53
2018-02-11T03:25:22.860Z,6.07
2018-02-11T03:27:52.089Z,4.57
2018-02-11T03:30:21.347Z,4.40
2018-02-11T03:32:50.585Z,5.10
2018-02-11T03:35:19.857Z,4.90
2018-02-11T03:37:49.085Z,4.43
2018-02-11T03:40:18.337Z,4.40
2018-02-11T03:42:47.577Z,4.40
2018-02-11T03:45:17.565Z,4.50
2018-02-11T03:47:46.796Z,4.00
2018-02-11T03:50:16.132Z,4.27
2018-02-11T03:52:46.137Z,4.67
2018-02-11T03:55:15.389Z,3.93
2018-02-11T03:57:44.867Z,5.00
2018-02-11T04:00:14.857Z,4.07
2018-02-11T04:02:45.122Z,5.37
2018-02-11T04:05:14.377Z,4.93
2018-02-11T04:07:43.610Z,4.50
2018-02-11T04:10:12.856Z,3.23
2018-02-11T04:12:42.105Z,4.90
2018-02-11T04:15:12.113Z,5.00
2018-02-11T04:17:41.370Z,4.30
2018-02-11T04:20:10.608Z,4.20
2018-02-11T04:22:40.618Z,4.53
2018-02-11T04:25:09.885Z,4.17
2018-02-11T04:27:39.118Z,3.20
2018-02-11T04:30:08.371Z,4.43
2018-02-11T04:32:37.612Z,4.50
2018-02-11T04:35:06.866Z,3.20
2018-02-11T04:37:36.131Z,3.97
2018-02-11T04:40:05.554Z,3.67
2018-02-11T04:42:34.817Z,3.47
2018-02-11T04:45:04.056Z,4.27
2018-02-11T04:47:33.305Z,4.10
2018-02-11T04:50:02.800Z,3.53
2018-02-11T04:52:32.055Z,3.60
2018-02-11T04:55:01.309Z,4.43
2018-02-11T04:57:30.556Z,3.27
2018-02-11T05:00:00.560Z,3.93
2018-02-11T05:02:29.793Z,4.57
2018-02-11T05:04:59.063Z,4.80
2018-02-11T05:07:28.280Z,4.03
2018-02-11T05:09:57.581Z,4.23
2018-02-11T05:12:26.970Z,3.67
2018-02-11T05:14:56.185Z,4.00
2018-02-11T05:17:25.457Z,4.73
2018-02-11T05:19:54.730Z,4.60
2018-02-11T05:22:23.922Z,5.10
2018-02-11T05:24:53.168Z,3.87
2018-02-11T05:27:22.445Z,4.10
2018-02-11T05:29:51.718Z,4.57
2018-02-11T05:32:20.960Z,4.60
2018-02-11T05:34:50.200Z,6.17
2018-02-11T05:37:19.552Z,6.20
2018-02-11T05:39:48.772Z,4.90
2018-02-11T05:42:18.793Z,4.90
2018-02-11T05:44:48.797Z,5.70
2018-02-11T05:47:18.106Z,6.00
2018-02-11T05:49:48.935Z,5.47
2018-02-11T05:52:18.220Z,5.23
2018-02-11T05:54:47.638Z,5.47
2018-02-11T05:57:16.875Z,5.67
2018-02-11T05:59:46.135Z,3.80
2018-02-11T06:02:15.395Z,5.83
2018-02-11T06:04:44.658Z,5.50
2018-02-11T06:07:14.006Z,5.53
2018-02-11T06:09:43.314Z,5.20
2018-02-11T06:12:12.580Z,5.40
2018-02-11T06:14:41.826Z,3.73
2018-02-11T06:17:11.077Z,4.63
2018-02-11T06:19:40.330Z,5.27
2018-02-11T06:22:09.588Z,3.80
2018-02-11T06:24:39.101Z,5.20
2018-02-11T06:27:08.371Z,4.60
2018-02-11T06:29:37.593Z,4.10
2018-02-11T06:32:06.847Z,4.30
2018-02-11T06:34:36.082Z,5.83
2018-02-11T06:37:05.352Z,4.60
2018-02-11T06:39:34.610Z,4.60
2018-02-11T06:42:03.856Z,5.03
2018-02-11T06:44:33.105Z,4.60
2018-02-11T06:47:03.093Z,6.20
2018-02-11T06:49:33.210Z,5.07
2018-02-11T06:52:02.445Z,7.10
2018-02-11T06:54:31.785Z,5.30
2018-02-11T06:57:01.152Z,6.20
2018-02-11T06:59:30.465Z,6.90
2018-02-11T07:01:59.697Z,6.13
2018-02-11T07:04:28.949Z,5.30
2018-02-11T07:06:58.233Z,6.97
2018-02-11T07:09:27.461Z,5.83
2018-02-11T07:11:56.735Z,5.00
2018-02-11T07:14:25.957Z,5.43
2018-02-11T07:16:55.193Z,5.07
2018-02-11T07:19:24.452Z,7.60
2018-02-11T07:21:53.713Z,6.73
2018-02-11T07:24:22.953Z,6.43
2018-02-11T07:26:52.253Z,6.40
2018-02-11T07:29:21.490Z,6.30
2018-02-11T07:31:50.730Z,6.67
2018-02-11T07:34:20.773Z,6.27
2018-02-11T07:36:50.026Z,7.67
2018-02-11T07:39:20.001Z,5.80
2018-02-11T07:41:49.272Z,7.23
2018-02-11T07:44:18.480Z,6.80
2018-02-11T07:46:47.743Z,9.93
2018-02-11T07:49:16.973Z,8.13
2018-02-11T07:51:46.329Z,7.33
2018-02-11T07:54:15.585Z,6.40
2018-02-11T07:56:44.829Z,6.67
2018-02-11T07:59:14.103Z,9.20
2018-02-11T08:01:43.353Z,7.83
2018-02-11T08:04:12.596Z,6.80
2018-02-11T08:06:41.873Z,7.50
2018-02-11T08:09:11.114Z,6.33
2018-02-11T08:11:40.364Z,7.53
2018-02-11T08:14:09.630Z,6.57
2018-02-11T08:16:38.906Z,8.10
2018-02-11T08:19:08.162Z,6.17
2018-02-11T08:21:37.526Z,6.40
2018-02-11T08:24:06.781Z,6.57
2018-02-11T08:26:36.781Z,7.00
2018-02-11T08:29:06.214Z,7.17
2018-02-11T08:31:35.463Z,7.80
2018-02-11T08:34:04.726Z,6.90
2018-02-11T08:36:33.981Z,9.23
2018-02-11T08:39:03.241Z,5.00
2018-02-11T08:41:32.497Z,6.20
2018-02-11T08:44:01.745Z,8.10
2018-02-11T08:46:30.991Z,8.20
2018-02-11T08:49:00.288Z,7.20
2018-02-11T08:51:29.515Z,6.80
2018-02-11T08:53:59.533Z,7.10
2018-02-11T08:56:29.500Z,4.30
2018-02-11T08:58:58.756Z,3.63
2018-02-11T09:01:28.155Z,4.87
2018-02-11T09:03:58.155Z,4.50
2018-02-11T09:06:27.413Z,4.57
2018-02-11T09:08:56.736Z,4.23
2018-02-11T09:11:26.035Z,4.17
2018-02-11T09:13:56.193Z,4.67
2018-02-11T09:16:25.434Z,4.80
2018-02-11T09:18:54.679Z,5.07
2018-02-11T09:21:23.941Z,5.90
2018-02-11T09:23:53.190Z,4.00
2018-02-11T09:26:22.473Z,5.47
2018-02-11T09:28:51.707Z,5.90
2018-02-11T09:31:21.823Z,4.50
2018-02-11T09:33:51.846Z,9.17
2018-02-11T09:36:21.110Z,4.57
2018-02-11T09:38:50.371Z,4.50
2018-02-11T09:41:19.607Z,3.70
2018-02-11T09:43:48.839Z,4.03
2018-02-11T09:46:18.076Z,3.57
2018-02-11T09:48:47.338Z,2.70
2018-02-11T09:51:17.363Z,3.33
2018-02-11T09:53:46.609Z,1.70
2018-02-11T09:56:15.857Z,3.00
2018-02-11T09:58:45.888Z,2.53
2018-02-11T10:01:15.127Z,2.80
2018-02-11T10:03:44.360Z,2.00
2018-02-11T10:06:13.766Z,2.17
2018-02-11T10:08:43.783Z,1.60
2018-02-11T10:11:13.043Z,2.80
2018-02-11T10:13:42.309Z,1.60
2018-02-11T10:16:11.794Z,2.50
2018-02-11T10:18:41.027Z,2.07
2018-02-11T10:21:10.297Z,2.40
2018-02-11T10:23:39.536Z,2.40
2018-02-11T10:26:08.837Z,2.17
2018-02-11T10:28:38.073Z,2.50
2018-02-11T10:31:07.327Z,1.83
2018-02-11T10:33:37.325Z,1.97
2018-02-11T10:36:06.582Z,2.07
2018-02-11T10:38:35.822Z,2.17
2018-02-11T10:41:05.835Z,1.47
2018-02-11T10:43:35.097Z,1.90
2018-02-11T10:46:04.332Z,1.20
2018-02-11T10:48:33.565Z,1.80
2018-02-11T10:51:02.837Z,2.40
2018-02-11T10:53:32.085Z,2.33
2018-02-11T10:56:01.346Z,1.80
2018-02-11T10:58:30.564Z,1.67
2018-02-11T11:00:59.820Z,1.40
2018-02-11T11:03:29.064Z,1.53
2018-02-11T11:05:58.315Z,1.57
2018-02-11T11:08:27.554Z,1.37
2018-02-11T11:10:56.788Z,1.40
2018-02-11T11:13:26.059Z,1.60
2018-02-11T11:15:56.085Z,1.53
2018-02-11T11:18:25.323Z,1.63
2018-02-11T11:20:54.638Z,1.70
2018-02-11T11:23:24.694Z,1.50
2018-02-11T11:25:54.701Z,1.90
2018-02-11T11:28:23.950Z,1.20
2018-02-11T11:30:53.204Z,1.70
2018-02-11T11:33:23.239Z,1.23
2018-02-11T11:35:52.458Z,1.30
2018-02-11T11:38:21.686Z,1.40
2018-02-11T11:40:51.004Z,1.40
2018-02-11T11:43:20.236Z,1.90
2018-02-11T11:45:49.517Z,1.97
2018-02-11T11:48:18.737Z,1.80
2018-02-11T11:50:48.744Z,2.20
2018-02-11T11:53:17.982Z,2.23
2018-02-11T11:55:47.230Z,2.30
2018-02-11T11:58:16.497Z,4.90
2018-02-11T12:00:45.736Z,5.50
2018-02-11T12:03:15.011Z,7.40
2018-02-11T12:05:44.260Z,11.73
2018-02-11T12:08:13.512Z,7.27
2018-02-11T12:10:43.504Z,2.00
2018-02-11T12:13:14.307Z,4.03
2018-02-11T12:15:43.561Z,3.50
2018-02-11T12:18:12.807Z,7.07
2018-02-11T12:20:42.827Z,5.20
2018-02-11T12:23:12.083Z,4.00
2018-02-11T12:25:41.322Z,2.67
2018-02-11T12:28:11.318Z,4.70
2018-02-11T12:30:40.564Z,4.20
2018-02-11T12:33:09.798Z,3.60
2018-02-11T12:35:39.082Z,6.33
2018-02-11T12:38:08.336Z,4.87
2018-02-11T12:40:37.597Z,3.37
2018-02-11T12:43:06.838Z,4.60
2018-02-11T12:45:36.885Z,14.17
2018-02-11T12:48:06.115Z,14.20
2018-02-11T12:50:35.376Z,3.33
2018-02-11T12:53:04.607Z,3.37
2018-02-11T12:55:33.888Z,4.97
2018-02-11T12:58:03.280Z,2.60
2018-02-11T13:00:33.318Z,6.13
2018-02-11T13:03:02.598Z,3.80
2018-02-11T13:05:32.445Z,5.33
2018-02-11T13:08:01.701Z,6.10
2018-02-11T13:10:31.843Z,1.97
2018-02-11T13:13:01.069Z,6.63
2018-02-11T13:15:30.344Z,2.10
2018-02-11T13:17:59.587Z,2.27
2018-02-11T13:20:28.839Z,2.23
2018-02-11T13:22:58.080Z,2.23
2018-02-11T13:25:27.386Z,2.80
2018-02-11T13:27:56.658Z,5.33
2018-02-11T13:30:26.082Z,2.70
2018-02-11T13:32:55.301Z,4.43
2018-02-11T13:35:24.542Z,3.80
2018-02-11T13:37:53.812Z,5.70
2018-02-11T13:40:23.043Z,3.50
2018-02-11T13:42:53.105Z,4.03
2018-02-11T13:45:22.360Z,3.50
2018-02-11T13:47:51.608Z,3.30
2018-02-11T13:50:20.835Z,4.00
2018-02-11T13:52:50.151Z,4.30
2018-02-11T13:55:19.360Z,4.43
2018-02-11T13:57:48.636Z,5.13
2018-02-11T14:00:18.759Z,6.90
2018-02-11T14:02:48.014Z,6.87
2018-02-11T14:05:17.297Z,4.03
2018-02-11T14:07:46.561Z,4.17
2018-02-11T14:10:15.886Z,5.57
2018-02-11T14:12:45.194Z,3.40
2018-02-11T14:15:14.389Z,3.53
2018-02-11T14:17:43.621Z,2.53
2018-02-11T14:20:12.870Z,3.40
2018-02-11T14:22:42.877Z,3.50
2018-02-11T14:25:13.635Z,5.17
2018-02-11T14:27:42.877Z,5.03
2018-02-11T14:30:12.127Z,3.10
2018-02-11T14:32:42.137Z,2.30
2018-02-11T14:35:11.432Z,2.60
2018-02-11T14:37:40.662Z,3.37
2018-02-11T14:40:10.720Z,10.83
2018-02-11T14:42:39.977Z,2.30
2018-02-11T14:45:09.230Z,4.33
2018-02-11T14:47:38.481Z,3.20
2018-02-11T14:50:08.484Z,4.23
2018-02-11T14:52:37.868Z,1.97
2018-02-11T14:55:07.157Z,1.60
2018-02-11T14:57:36.397Z,1.70
2018-02-11T15:00:05.806Z,1.23
2018-02-11T15:02:34.912Z,3.03
2018-02-11T15:05:04.177Z,3.10
2018-02-11T15:07:33.428Z,5.60
2018-02-11T15:10:02.689Z,4.80
2018-02-11T15:12:31.929Z,4.03
2018-02-11T15:15:01.197Z,3.00
2018-02-11T15:17:31.252Z,2.03
2018-02-11T15:20:00.484Z,3.73
2018-02-11T15:22:29.757Z,2.90
2018-02-11T15:24:59.029Z,4.00
2018-02-11T15:27:28.444Z,2.23
2018-02-11T15:29:57.692Z,1.57
2018-02-11T15:32:26.938Z,2.70
2018-02-11T15:34:56.937Z,2.90
2018-02-11T15:37:26.233Z,2.00
2018-02-11T15:39:55.539Z,1.80
2018-02-11T15:42:24.728Z,2.13
2018-02-11T15:44:53.989Z,2.23
2018-02-11T15:47:23.252Z,2.70
2018-02-11T15:49:53.175Z,3.10
2018-02-11T15:52:23.156Z,3.45
2018-02-11T15:54:52.410Z,2.70
2018-02-11T15:57:21.637Z,3.33
2018-02-11T15:59:50.885Z,2.87
2018-02-11T16:02:20.998Z,3.77
2018-02-11T16:04:51.031Z,2.87
2018-02-11T16:07:21.031Z,2.63
2018-02-11T16:09:50.321Z,3.00
2018-02-11T16:12:19.548Z,2.63
2018-02-11T16:14:49.562Z,3.07
2018-02-11T16:17:19.621Z,2.63
2018-02-11T16:19:48.986Z,3.00
2018-02-11T16:22:18.246Z,2.53
2018-02-11T16:24:47.894Z,2.50
2018-02-11T16:27:17.930Z,2.80
2018-02-11T16:29:47.193Z,2.20
2018-02-11T16:32:16.469Z,2.50
2018-02-11T16:34:45.751Z,3.10
2018-02-11T16:37:14.992Z,3.00
2018-02-11T16:39:44.267Z,2.63
2018-02-11T16:42:13.538Z,12.77
2018-02-11T16:44:42.800Z,21.50
2018-02-11T16:47:12.022Z,5.70
2018-02-11T16:49:41.333Z,6.60
2018-02-11T16:52:10.638Z,7.60
2018-02-11T16:54:40.598Z,4.50
2018-02-11T16:57:09.852Z,4.33
2018-02-11T16:59:39.132Z,4.50
2018-02-11T17:02:08.353Z,3.93
2018-02-11T17:04:37.604Z,7.23
2018-02-11T17:07:06.942Z,8.10
2018-02-11T17:09:36.186Z,6.90
2018-02-11T17:12:05.424Z,4.80
2018-02-11T17:14:34.685Z,3.07
2018-02-11T17:17:03.967Z,3.20
2018-02-11T17:19:33.258Z,4.10
2018-02-11T17:22:02.541Z,3.70
2018-02-11T17:24:32.588Z,2.47
2018-02-11T17:27:01.849Z,3.07
2018-02-11T17:29:31.083Z,3.00
2018-02-11T17:32:00.321Z,3.00
2018-02-11T17:34:29.583Z,3.40
2018-02-11T17:36:58.825Z,3.50
2018-02-11T17:39:28.092Z,3.57
2018-02-11T17:41:57.353Z,3.70
2018-02-11T17:44:26.596Z,2.90
2018-02-11T17:46:55.878Z,2.87
2018-02-11T17:49:25.109Z,2.83
2018-02-11T17:51:54.332Z,3.50
2018-02-11T17:54:24.204Z,3.23
2018-02-11T17:56:53.453Z,3.47
2018-02-11T17:59:24.221Z,3.33
2018-02-11T18:01:53.477Z,2.80
2018-02-11T18:04:22.708Z,3.50
2018-02-11T18:06:52.737Z,3.47
2018-02-11T18:09:21.985Z,2.83
2018-02-11T18:11:51.204Z,2.80
2018-02-11T18:14:21.203Z,3.10
2018-02-11T18:16:50.538Z,3.07
2018-02-11T18:19:19.776Z,2.97
2018-02-11T18:21:50.070Z,6.70
2018-02-11T18:24:20.110Z,7.10
2018-02-11T18:26:49.616Z,3.07
2018-02-11T18:29:18.912Z,4.00
2018-02-11T18:31:48.170Z,3.17
2018-02-11T18:34:17.414Z,3.03
2018-02-11T18:36:47.427Z,3.30
2018-02-11T18:39:16.681Z,3.37
2018-02-11T18:41:45.984Z,2.93
2018-02-11T18:44:15.216Z,5.97
2018-02-11T18:46:44.465Z,4.33
2018-02-11T18:49:13.720Z,3.43
2018-02-11T18:51:43.745Z,4.03
2018-02-11T18:54:13.786Z,4.60
2018-02-11T18:56:43.064Z,4.13
2018-02-11T18:59:13.090Z,3.80
2018-02-11T19:01:42.361Z,4.87
2018-02-11T19:04:11.630Z,6.03
2018-02-11T19:06:40.911Z,5.00
2018-02-11T19:09:10.168Z,3.97
2018-02-11T19:11:39.442Z,3.73
2018-02-11T19:14:08.718Z,6.33
2018-02-11T19:16:38.159Z,3.90
2018-02-11T19:19:07.432Z,3.80
2018-02-11T19:21:36.722Z,4.10
2018-02-11T19:24:06.015Z,3.93
2018-02-11T19:26:35.209Z,5.10
2018-02-11T19:29:04.525Z,3.97
2018-02-11T19:31:34.624Z,5.80
2018-02-11T19:34:04.647Z,4.30
2018-02-11T19:36:33.896Z,4.53
2018-02-11T19:39:03.252Z,5.63
2018-02-11T19:41:32.501Z,4.50
2018-02-11T19:44:01.790Z,4.83
2018-02-11T19:46:31.849Z,4.50
2018-02-11T19:49:01.927Z,3.83
2018-02-11T19:51:31.203Z,3.60
2018-02-11T19:54:00.534Z,4.13
2018-02-11T19:56:29.782Z,4.30
2018-02-11T19:58:59.105Z,5.63
2018-02-11T20:01:28.383Z,4.57
2018-02-11T20:03:57.663Z,4.40
2018-02-11T20:06:26.933Z,3.67
2018-02-11T20:08:56.170Z,4.23
2018-02-11T20:11:25.404Z,3.50
2018-02-11T20:13:54.868Z,4.10
2018-02-11T20:16:24.205Z,4.60
2018-02-11T20:18:53.808Z,4.40
2018-02-11T20:21:23.203Z,3.80
2018-02-11T20:23:52.699Z,4.00
2018-02-11T20:26:21.926Z,3.63
2018-02-11T20:28:51.236Z,3.20
2018-02-11T20:31:20.608Z,3.27
2018-02-11T20:33:49.880Z,3.07
2018-02-11T20:36:19.118Z,3.40
2018-02-11T20:38:49.197Z,3.50
2018-02-11T20:41:18.434Z,3.10
2018-02-11T20:43:47.664Z,3.60
2018-02-11T20:46:16.944Z,3.47
2018-02-11T20:48:46.191Z,4.20
2018-02-11T20:51:15.445Z,4.30
2018-02-11T20:53:45.465Z,3.43
2018-02-11T20:56:15.484Z,4.10
2018-02-11T20:58:44.713Z,3.90
2018-02-11T21:01:13.968Z,3.50
2018-02-11T21:03:43.242Z,4.33
2018-02-11T21:06:12.511Z,3.00
2018-02-11T21:08:41.726Z,4.10
2018-02-11T21:11:10.987Z,6.00
2018-02-11T21:13:40.255Z,8.33
2018-02-11T21:16:09.515Z,5.70
2018-02-11T21:18:38.773Z,4.53
2018-02-11T21:21:08.773Z,3.37
2018-02-11T21:23:38.049Z,5.67
2018-02-11T21:26:07.275Z,3.53
2018-02-11T21:28:36.530Z,3.47
2018-02-11T21:31:06.557Z,3.50
2018-02-11T21:33:35.788Z,3.40
2018-02-11T21:36:05.109Z,3.23
2018-02-11T21:38:35.109Z,4.40
2018-02-11T21:41:04.372Z,3.47
2018-02-11T21:43:33.609Z,3.50
2018-02-11T21:46:04.375Z,3.47
2018-02-11T21:48:33.626Z,3.80
2018-02-11T21:51:03.556Z,3.47
2018-02-11T21:53:32.821Z,4.47
2018-02-11T21:56:02.087Z,3.27
2018-02-11T21:58:32.117Z,3.27
2018-02-11T22:01:01.370Z,3.70
2018-02-11T22:03:30.599Z,3.30
2018-02-11T22:05:59.869Z,3.17
2018-02-11T22:08:29.109Z,3.10
2018-02-11T22:10:58.341Z,3.50
2018-02-11T22:13:27.589Z,3.80
2018-02-11T22:15:56.843Z,2.90
2018-02-11T22:18:26.091Z,3.27
2018-02-11T22:20:55.320Z,3.20
2018-02-11T22:23:24.582Z,3.53
2018-02-11T22:25:53.849Z,3.40
2018-02-11T22:28:23.093Z,3.43
2018-02-11T22:30:52.321Z,3.10
2018-02-11T22:33:21.628Z,2.93
2018-02-11T22:35:51.061Z,3.30
2018-02-11T22:38:20.313Z,3.50
2018-02-11T22:40:49.569Z,3.23
2018-02-11T22:43:18.812Z,3.50
2018-02-11T22:45:48.858Z,3.27
2018-02-11T22:48:18.323Z,6.23
2018-02-11T22:50:47.630Z,3.47
2018-02-11T22:53:16.867Z,3.70
2018-02-11T22:55:46.116Z,2.97
2018-02-11T22:58:15.370Z,2.90
2018-02-11T23:00:44.611Z,3.00
2018-02-11T23:03:13.864Z,3.50
2018-02-11T23:05:43.102Z,2.70
2018-02-11T23:08:12.347Z,3.47
2018-02-11T23:10:41.588Z,2.60
2018-02-11T23:13:10.866Z,3.63
2018-02-11T23:15:40.128Z,2.53
2018-02-11T23:18:09.422Z,3.17
2018-02-11T23:20:38.656Z,3.30
2018-02-11T23:23:07.901Z,3.40
2018-02-11T23:25:37.212Z,3.40
2018-02-11T23:28:06.473Z,4.27
2018-02-11T23:30:36.380Z,3.13
2018-02-11T23:33:05.655Z,3.23
2018-02-11T23:35:34.909Z,2.70
2018-02-11T23:38:04.134Z,3.73
2018-02-11T23:40:33.489Z,3.23
2018-02-11T23:43:03.533Z,2.80
2018-02-11T23:45:32.788Z,3.70
2018-02-11T23:48:02.026Z,3.90
2018-02-11T23:50:31.322Z,3.10
2018-02-11T23:53:01.300Z,4.17
2018-02-11T23:55:32.080Z,2.70
2018-02-11T23:58:01.344Z,3.80
